Flight Track Log - Related Links

Times and Time Zones

All times are in EDT time to prevent confusion due to time zone crossing. See the DAL2128 flight status page for this flight to view local times or setup timezone preferences in your user account.

Time Position Orientation Groundspeed Altitude Reporting Facility
EDT Latitude Longitude Course Direction KTS MPH feet Rate Location/Type
Sat 02:17:35 PM 28.4000 -81.3000 350° North 177 204 700  Level Orlando TRACON
Sat 02:18:48 PM 28.3500 -81.3333 210° Southwest 272 313 3,400 2,662 Climbing Orlando TRACON
Sat 02:19:48 PM 28.3333 -81.4167 257° West 284 327 6,600 3,200 Climbing Orlando TRACON
Sat 02:20:00 PM 28.7812 -81.3500 North  Level FlightAware Approximate
Sat 02:20:48 PM 28.3333 -81.5167 270° West 284 327 9,800  Level Orlando TRACON
Sat 02:21:00 PM 28.9049 -81.3643 350° North  Level FlightAware Approximate
Sat 02:21:48 PM 28.4000 -81.5500 336° Northwest 322 371 11,500  Level Orlando TRACON
Sat 02:22:00 PM 29.0291 -81.3725 350° North  Level FlightAware Approximate
Sat 02:23:51 PM 28.6192 -81.5872 352° North 390 449 14,400  Level Jacksonville Center
Sat 02:24:51 PM 28.7361 -81.6092 351° North 403 464 16,000 1,700 Climbing Jacksonville Center
Sat 02:25:51 PM 28.8575 -81.6339 350° North 417 480 17,800 1,900 Climbing Jacksonville Center
Sat 02:26:51 PM 28.9850 -81.6558 351° North 438 504 19,800 1,800 Climbing Jacksonville Center
Sat 02:27:51 PM 29.1083 -81.6781 351° North 449 517 21,400 1,550 Climbing Jacksonville Center
Sat 02:28:51 PM 29.2339 -81.7050 349° North 455 524 22,900 1,400 Climbing Jacksonville Center
Sat 02:29:51 PM 29.3636 -81.7322 350° North 460 529 24,200 1,250 Climbing Jacksonville Center
Sat 02:30:51 PM 29.4994 -81.7567 351° North 472 543 25,400 1,400 Climbing Jacksonville Center
Sat 02:31:51 PM 29.6333 -81.7814 351° North 477 549 27,000 1,700 Climbing Jacksonville Center
Sat 02:32:51 PM 29.7628 -81.7967 354° North 477 549 28,800 1,500 Climbing Jacksonville Center
Sat 02:33:51 PM 29.8925 -81.8072 356° North 471 542 30,000 1,100 Climbing Jacksonville Center
Sat 02:34:51 PM 30.0197 -81.8178 356° North 466 536 31,000 450 Climbing Jacksonville Center
Sat 02:35:51 PM 30.1514 -81.8261 357° North 461 531 30,900 -50 Descending Jacksonville Center
Sat 02:36:51 PM 30.2808 -81.8367 356° North 461 531 30,900  Level Jacksonville Center
Sat 02:37:51 PM 30.4083 -81.8497 355° North 461 531 30,900  Level Jacksonville Center
Sat 02:38:51 PM 30.5358 -81.8603 356° North 467 537 30,900  Level Jacksonville Center
Sat 02:39:51 PM 30.6550 -81.8758 354° North 464 534 30,900  Level Jacksonville Center
Sat 02:40:51 PM 30.7825 -81.8892 355° North 459 528 30,900  Level Jacksonville Center
Sat 02:41:51 PM 30.9078 -81.8997 356° North 459 528 30,900 29 Level Jacksonville Center
Sat 02:44:18 PM 31.2319 -81.9286 356° North 469 540 31,000 29 Climbing Atlanta Center
Sat 02:45:18 PM 31.3572 -81.9428 354° North 462 532 31,000  Level Atlanta Center
Sat 02:46:18 PM 31.4869 -81.9544 356° North 462 532 31,000  Level Atlanta Center
Sat 02:47:18 PM 31.6144 -81.9661 356° North 462 532 31,000  Level Atlanta Center
Sat 02:48:18 PM 31.7439 -81.9753 357° North 462 532 31,000  Level Atlanta Center
Sat 02:49:18 PM 31.8714 -81.9869 356° North 462 532 31,000  Level Atlanta Center
Sat 02:50:18 PM 31.9989 -81.9989 355° North 456 525 31,000  Level Atlanta Center
Sat 02:51:18 PM 32.1203 -82.0181 352° North 456 525 31,000  Level Atlanta Center
Sat 02:52:18 PM 32.2458 -82.0397 352° North 451 519 31,000  Level Atlanta Center
Sat 02:53:18 PM 32.3694 -82.0692 349° North 445 512 31,000  Level Atlanta Center
Sat 02:54:18 PM 32.4931 -82.0933 351° North 450 518 31,000  Level Atlanta Center
Sat 02:55:18 PM 32.6189 -82.1228 349° North 450 518 31,000  Level Atlanta Center
Sat 02:56:18 PM 32.7444 -82.1494 350° North 450 518 31,000  Level Atlanta Center
Sat 02:57:18 PM 32.8700 -82.1764 350° North 450 518 31,000  Level Atlanta Center
Sat 02:58:18 PM 32.9917 -82.2111 347° North 450 518 31,000  Level Atlanta Center
Sat 02:59:18 PM 33.1153 -82.2431 348° North 450 518 31,000  Level Atlanta Center
Sat 03:00:18 PM 33.2411 -82.2803 346° North 450 518 31,000  Level Atlanta Center
Sat 03:01:18 PM 33.3586 -82.3253 342° North 469 540 31,000  Level Atlanta Center
Sat 03:02:18 PM 33.4781 -82.3603 346° North 464 534 31,000  Level Atlanta Center
Sat 03:03:18 PM 33.6050 -82.3378 North 443 510 31,000  Level Atlanta Center
Sat 03:04:18 PM 33.7469 -82.3325 North 449 517 31,000  Level Atlanta Center
Sat 03:05:18 PM 33.8803 -82.3272 North 466 536 31,000  Level Atlanta Center
Sat 03:06:18 PM 34.0078 -82.3247 North 459 528 31,000  Level Atlanta Center
Sat 03:07:18 PM 34.1244 -82.3225 North 465 535 31,000  Level Atlanta Center
Sat 03:08:18 PM 34.2539 -82.3222 360° North 459 528 31,000  Level Atlanta Center
Sat 03:09:18 PM 34.3853 -82.3147 North 459 528 31,000  Level Atlanta Center
Sat 03:10:18 PM 34.5144 -82.3044 North 459 528 31,000  Level Atlanta Center
Sat 03:11:18 PM 34.6458 -82.2992 North 464 534 31,000  Level Atlanta Center
Sat 03:12:18 PM 34.7919 -82.2886 North 464 534 31,000  Level Atlanta Center
Sat 03:13:18 PM 34.9233 -82.2806 North 464 534 31,000  Level Atlanta Center
Sat 03:14:18 PM 35.0544 -82.2678 North 464 534 31,000  Level Atlanta Center
Sat 03:15:18 PM 35.1881 -82.2675 360° North 464 534 31,000  Level Atlanta Center
Sat 03:16:18 PM 35.3236 -82.2569 North 483 556 31,000  Level Atlanta Center
Sat 03:17:18 PM 35.4444 -82.2492 North 478 550 31,000  Level Atlanta Center
Sat 03:18:18 PM 35.5778 -82.2436 North 473 544 31,000 -50 Level Atlanta Center
Sat 03:19:18 PM 35.7092 -82.2331 North 473 544 30,900  Descending Atlanta Center
Sat 03:20:18 PM 35.8425 -82.2250 North 478 550 31,000 50 Climbing Atlanta Center
Sat 03:21:18 PM 35.9906 -82.2142 North 478 550 31,000  Level Atlanta Center
Sat 03:22:18 PM 36.1239 -82.2033 North 478 550 31,000  Level Atlanta Center
Sat 03:23:18 PM 36.2300 -82.1983 North 478 550 31,000 -50 Level Atlanta Center
Sat 03:24:18 PM 36.3864 -82.1819 North 472 543 30,900  Descending Atlanta Center
Sat 03:26:40 PM 36.6931 -82.1636 North 484 557 31,000 29 Climbing Indianapolis Center
Sat 03:27:42 PM 36.8292 -82.1539 North 491 565 31,000  Level Indianapolis Center
Sat 03:28:43 PM 36.9628 -82.1442 North 487 560 31,000  Level Indianapolis Center
Sat 03:29:45 PM 37.1192 -82.1353 North 485 558 31,000  Level Indianapolis Center
Sat 03:30:46 PM 37.2525 -82.1256 North 482 555 31,000  Level Indianapolis Center
Sat 03:31:48 PM 37.3881 -82.1181 North 485 558 31,000  Level Indianapolis Center
Sat 03:32:49 PM 37.5236 -82.1081 North 488 562 31,000  Level Indianapolis Center
Sat 03:33:51 PM 37.6578 -82.0994 North 484 557 31,000  Level Indianapolis Center
Sat 03:34:52 PM 37.7933 -82.0906 North 486 559 31,000  Level Indianapolis Center
Sat 03:35:54 PM 37.9317 -82.0800 North 485 558 31,000  Level Indianapolis Center
Sat 03:36:55 PM 38.0681 -82.0708 North 488 562 31,000  Level Indianapolis Center
Sat 03:37:57 PM 38.2039 -82.0625 North 487 560 31,000  Level Indianapolis Center
Sat 03:38:58 PM 38.3406 -82.0522 North 488 562 31,000  Level Indianapolis Center
Sat 03:40:00 PM 38.5050 -82.0428 North 492 566 31,000  Level Indianapolis Center
Sat 03:41:01 PM 38.6425 -82.0333 North 489 563 31,000 -341 Level Indianapolis Center
Sat 03:42:03 PM 38.7800 -82.0281 North 488 562 30,300 -488 Descending Indianapolis Center
Sat 03:43:04 PM 38.9144 -82.0503 353° North 484 557 30,000 -145 Descending Indianapolis Center
Sat 03:44:07 PM 39.0500 -82.0736 352° North 485 558 30,000  Level Indianapolis Center
Sat 03:45:07 PM 39.1861 -82.0950 353° North 488 562 30,000  Level Indianapolis Center
Sat 03:46:09 PM 39.3222 -82.1172 353° North 489 563 30,000 -49 Level Indianapolis Center
Sat 03:47:10 PM 39.4664 -82.1394 353° North 487 560 29,900 -49 Descending Indianapolis Center
Sat 03:48:12 PM 39.6019 -82.1617 353° North 487 560 29,900  Level Indianapolis Center
Sat 03:49:13 PM 39.7364 -82.1836 353° North 485 558 29,900  Level Indianapolis Center
Sat 03:50:15 PM 39.8719 -82.2058 353° North 486 559 29,900 49 Level Indianapolis Center
Sat 03:51:16 PM 40.0100 -82.1858 North 498 573 30,000  Climbing Indianapolis Center
Sat 03:52:18 PM 40.1472 -82.1556 10° North 497 572 29,900  Descending Indianapolis Center
Sat 03:53:19 PM 40.2914 -82.1356 North 492 566 30,000 49 Climbing Indianapolis Center
Sat 03:54:20 PM 40.4264 -82.1661 350° North 487 560 30,000  Level Indianapolis Center
Sat 03:55:22 PM 40.5547 -82.2236 341° North 482 555 30,000 -98 Level Indianapolis Center
Sat 03:56:23 PM 40.6819 -82.2828 341° North 480 552 29,800 -683 Descending Indianapolis Center
Sat 03:57:25 PM 40.8086 -82.3439 340° North 477 549 28,600 -1,024 Descending Indianapolis Center
Sat 03:58:26 PM 40.9361 -82.4028 341° North 478 550 27,700 -1,869 Descending Indianapolis Center
Sat 03:59:27 PM 41.0625 -82.4625 340° North 474 545 24,800 -2,537 Descending Indianapolis Center
Sat 04:00:29 PM 41.1833 -82.5181 341° North 455 524 22,500 -2,341 Descending Indianapolis Center
Sat 04:01:30 PM 41.2989 -82.5731 340° North 439 505 20,000 -2,311 Descending Indianapolis Center
Sat 04:02:31 PM 41.4092 -82.6272 340° North 421 484 17,800 -2,619 Descending Indianapolis Center
Sat 04:03:36 PM 41.5361 -82.6914 339° North 410 472 14,500 -2,736 Descending Cleveland Center
Sat 04:04:36 PM 41.6414 -82.7419 340° North 405 466 12,100 -1,608 Descending Cleveland Center
Sat 04:05:13 PM 41.7056 -82.7775 338° Northwest 401 461 11,900 -122 Descending Cleveland Center
Sat 04:06:14 PM 41.7872 -82.8611 323° Northwest 336 387 11,900 -443 Level Cleveland Center
Sat 04:07:15 PM 41.8525 -82.9361 319° Northwest 306 352 11,000 -492 Descending Cleveland Center
Sat 04:08:16 PM 41.9175 -83.0136 318° Northwest 309 356 10,900  Descending Cleveland Center
Sat 04:09:23 PM 41.9886 -83.1003 318° Northwest 305 351 11,000  Climbing Cleveland Center
Sat 04:10:36 PM 42.0575 -83.1842 318° Northwest 305 351 10,900  Descending Cleveland Center
Sat 04:11:32 PM 42.1247 -83.2625 319° Northwest 305 351 11,000 -270 Climbing Cleveland Center
Sat 04:12:27 PM 42.1850 -83.2622 360° North 238 274 10,400 -1,082 Descending Cleveland Center
Sat 04:13:34 PM 42.2489 -83.2117 30° Northeast 234 269 8,800 -1,395 Descending Cleveland Center
Sat 04:14:36 PM 42.2900 -83.1431 51° Northeast 231 266 7,400 -1,366 Descending Cleveland Center
Sat 04:15:37 PM 42.3450 -83.1031 28° Northeast 223 257 6,000 -1,345 Descending Cleveland Center
Sat 04:16:32 PM 42.3836 -83.1497 318° Northwest 200 230 4,800 -1,309 Descending Cleveland Center

Login

Don't have an account? Register now (free) for customized features, flight alerts, and more!